Andrews, TX

2:09 AM CST on January 20, 2018 (GMT -0600)
Andrews

Weather History for KE11 - November, 2012

Change the Weather History Date:

Monday, November 5, 2012

  Actual Average (KMAF) Record (KMAF)
Temperature  
Mean Temperature 59 °F -  
Max Temperature 72 °F 65 °F 89 °F (2007)
Min Temperature 46 °F 43 °F 27 °F (1992)
Degree Days  
Heating Degree Days 6    
Growing Degree Days 9 (Base 50)    
Moisture  
Dew Point 37 °F    
Average Humidity 48    
Maximum Humidity 90    
Minimum Humidity 22    
Precipitation  
Precipitation 0.00 in - - ()
Sea Level Pressure  
Sea Level Pressure 30.17 in    
Wind  
Wind Speed 8 mph ()    
Max Wind Speed 17 mph    
Max Gust Speed 23 mph    
Visibility 10.0 miles    
Events      
Averages and records for this station are not official NWS values.
T = Trace of Precipitation, MM = Missing Value Source: Averaged Metar Reports

Daily Weather History Graph

Daily Weather History Graph

Search for Another Location

Airport or City:

Trip Planner

Search our weather history database for the weather conditions in past years. The results will help you decide how hot, cold, wet, or windy it might be!

Date:

Astronomy

Nov. 05, 2012 Rise Set
Actual Time 7:11 AM CST 5:55 PM CST
Civil Twilight 6:45 AM CST 6:21 PM CST
Nautical Twilight 6:16 AM CST 6:50 PM CST
Astronomical Twilight 5:47 AM CST 7:19 PM CST
Moon 11:34 PM CST (11/5) 12:31 PM CST (11/5)
Length of Visible Light 11h 36m
Length of Day
10h 44m
Waning Gibbous, 62% of the Moon is Illuminated
Nov 5
Waning Gibbous
Nov 6
Last Quarter
Nov 13
New
Nov 20
First Quarter
Nov 28
Full

Hourly Weather History & Observations

Time (CST) Temp. Dew Point Humidity Pressure Visibility Wind Dir Wind Speed Gust Speed Precip Events Conditions
12:15 AM 59.0 °F 49.1 °F 70% 30.13 in 10.0 mi WSW 8.1 mph - N/A   Clear
12:35 AM 58.3 °F 48.6 °F 70% 30.13 in 10.0 mi SW 8.1 mph - N/A   Clear
12:55 AM 57.9 °F 48.6 °F 71% 30.13 in 10.0 mi SW 9.2 mph - N/A   Clear
1:15 AM 57.4 °F 48.4 °F 72% 30.13 in 10.0 mi SW 9.2 mph - N/A   Clear
1:35 AM 57.7 °F 48.6 °F 71% 30.12 in 10.0 mi WSW 8.1 mph - N/A   Clear
1:55 AM 57.9 °F 48.6 °F 71% 30.13 in 10.0 mi WSW 8.1 mph - N/A   Clear
2:15 AM 55.9 °F 48.4 °F 76% 30.12 in 10.0 mi WSW 6.9 mph - N/A   Clear
2:35 AM 55.6 °F 48.4 °F 77% 30.12 in 10.0 mi West 5.8 mph - N/A   Clear
2:55 AM 54.7 °F 48.2 °F 79% 30.12 in 10.0 mi WSW 6.9 mph - N/A   Clear
3:15 AM 53.8 °F 48.2 °F 81% 30.12 in 10.0 mi West 6.9 mph - N/A   Clear
3:35 AM 53.6 °F 48.2 °F 82% 30.11 in 10.0 mi West 9.2 mph - N/A   Clear
3:55 AM 53.6 °F 48.2 °F 82% 30.11 in 10.0 mi West 8.1 mph - N/A   Clear
4:15 AM 53.6 °F 48.4 °F 82% 30.10 in 10.0 mi West 5.8 mph - N/A   Clear
4:35 AM 53.6 °F 47.8 °F 81% 30.11 in 10.0 mi WNW 4.6 mph - N/A   Clear
4:55 AM 50.2 °F 46.4 °F 87% 30.13 in 10.0 mi NNE 6.9 mph - N/A   Clear
5:15 AM 47.8 °F 45.1 °F 90% 30.13 in 10.0 mi North 5.8 mph - N/A   Clear
5:35 AM 46.8 °F 44.1 °F 90% 30.14 in 10.0 mi North 5.8 mph - N/A   Clear
6:15 AM 47.7 °F 43.7 °F 86% 30.13 in 10.0 mi NW 4.6 mph - N/A   Clear
6:35 AM 48.4 °F 43.7 °F 84% 30.14 in 10.0 mi NNW 10.4 mph - N/A   Clear
6:55 AM 48.4 °F 42.8 °F 81% 30.15 in 10.0 mi NNW 10.4 mph - N/A   Clear
7:15 AM 47.1 °F 41.9 °F 82% 30.16 in 10.0 mi NNW 9.2 mph - N/A   Clear
7:35 AM 47.1 °F 41.0 °F 79% 30.17 in 10.0 mi North 9.2 mph - N/A   Clear
7:55 AM 47.3 °F 40.1 °F 76% 30.18 in 10.0 mi North 6.9 mph - N/A   Clear
8:15 AM 50.4 °F 37.8 °F 62% 30.19 in 10.0 mi North 10.4 mph - N/A   Clear
8:35 AM 52.5 °F 36.5 °F 54% 30.20 in 10.0 mi NNE 13.8 mph 18.4 mph N/A   Clear
8:55 AM 55.2 °F 35.4 °F 47% 30.20 in 10.0 mi NE 11.5 mph 17.3 mph N/A   Clear
9:15 AM 56.7 °F 35.1 °F 44% 30.21 in 10.0 mi NE 12.7 mph 18.4 mph N/A   Clear
9:35 AM 58.8 °F 34.5 °F 40% 30.22 in 10.0 mi NE 15.0 mph 19.6 mph N/A   Clear
9:55 AM 61.0 °F 32.4 °F 34% 30.22 in 10.0 mi NE 16.1 mph 20.7 mph N/A   Clear
10:15 AM 62.8 °F 32.2 °F 32% 30.23 in 10.0 mi ENE 16.1 mph 21.9 mph N/A   Clear
10:35 AM 64.2 °F 31.8 °F 30% 30.23 in 10.0 mi NE 17.3 mph - N/A   Clear
10:55 AM 65.5 °F 31.1 °F 28% 30.22 in 10.0 mi ENE 17.3 mph 23.0 mph N/A   Clear
11:15 AM 67.1 °F 31.1 °F 26% 30.22 in 10.0 mi ENE 15.0 mph 20.7 mph N/A   Clear
11:35 AM 68.4 °F 31.3 °F 25% 30.22 in 10.0 mi ENE 17.3 mph - N/A   Clear
11:55 AM 69.6 °F 31.3 °F 24% 30.21 in 10.0 mi East 15.0 mph - N/A   Clear
12:15 PM 70.5 °F 30.9 °F 23% 30.21 in 10.0 mi ENE 12.7 mph 20.7 mph N/A   Clear
12:35 PM 70.7 °F 30.6 °F 23% 30.20 in 10.0 mi ENE 16.1 mph 20.7 mph N/A   Clear
12:55 PM 71.4 °F 31.1 °F 23% 30.19 in 10.0 mi East 11.5 mph 18.4 mph N/A   Clear
1:15 PM 71.1 °F 31.5 °F 23% 30.19 in 10.0 mi NE 6.9 mph 17.3 mph N/A   Clear
1:35 PM 72.0 °F 31.5 °F 22% 30.18 in 10.0 mi NE 11.5 mph 18.4 mph N/A   Clear
1:55 PM 72.1 °F 31.1 °F 22% 30.17 in 10.0 mi NE 8.1 mph - N/A   Clear
2:15 PM 72.1 °F 30.9 °F 22% 30.17 in 10.0 mi ENE 8.1 mph - N/A   Clear
2:35 PM 72.5 °F 31.3 °F 22% 30.16 in 10.0 mi East 6.9 mph - N/A   Clear
2:55 PM 72.9 °F 31.5 °F 22% 30.15 in 10.0 mi ESE 4.6 mph - N/A   Clear
3:15 PM 72.3 °F 31.6 °F 22% 30.16 in 10.0 mi ENE 8.1 mph - N/A   Clear
3:35 PM 72.5 °F 32.0 °F 23% 30.16 in 10.0 mi East 10.4 mph - N/A   Clear
3:55 PM 72.3 °F 31.3 °F 22% 30.16 in 10.0 mi East 8.1 mph - N/A   Clear
4:15 PM 72.1 °F 31.8 °F 23% 30.15 in 10.0 mi ENE 8.1 mph - N/A   Clear
4:35 PM 71.2 °F 31.5 °F 23% 30.16 in 10.0 mi Calm Calm - N/A   Clear
4:55 PM 71.2 °F 31.6 °F 23% 30.16 in 10.0 mi East 5.8 mph - N/A   Clear
5:15 PM 70.2 °F 31.8 °F 24% 30.16 in 10.0 mi ESE 5.8 mph - N/A   Clear
5:35 PM 68.2 °F 32.0 °F 26% 30.15 in 10.0 mi ESE 5.8 mph - N/A   Clear
5:55 PM 64.6 °F 32.0 °F 30% 30.16 in 10.0 mi ESE 5.8 mph - N/A   Clear
6:15 PM 63.1 °F 32.2 °F 31% 30.16 in 10.0 mi SE 3.5 mph - N/A   Clear
6:35 PM 61.9 °F 32.4 °F 33% 30.17 in 10.0 mi SE 3.5 mph - N/A   Clear
6:55 PM 59.7 °F 32.4 °F 36% 30.18 in 10.0 mi Calm Calm - N/A   Clear
7:15 PM 59.2 °F 32.4 °F 36% 30.18 in 10.0 mi Calm Calm - N/A   Clear
7:35 PM 58.1 °F 34.2 °F 41% 30.18 in 10.0 mi Calm Calm - N/A   Clear
7:55 PM 57.9 °F 33.1 °F 39% 30.18 in 10.0 mi South 3.5 mph - N/A   Clear
8:15 PM 56.5 °F 33.3 °F 42% 30.18 in 10.0 mi SSE 3.5 mph - N/A   Clear
8:35 PM 55.6 °F 32.5 °F 42% 30.18 in 10.0 mi SSE 3.5 mph - N/A   Clear
8:55 PM 54.9 °F 32.9 °F 43% 30.19 in 10.0 mi SE 3.5 mph - N/A   Clear
9:15 PM 55.4 °F 32.2 °F 41% 30.20 in 10.0 mi SSE 4.6 mph - N/A   Clear
9:35 PM 54.7 °F 33.4 °F 45% 30.19 in 10.0 mi SSW 6.9 mph - N/A   Clear
9:55 PM 54.9 °F 34.2 °F 46% 30.19 in 10.0 mi South 4.6 mph - N/A   Clear
10:15 PM 54.9 °F 34.7 °F 47% 30.19 in 10.0 mi SSW 6.9 mph - N/A   Clear
10:35 PM 54.7 °F 34.2 °F 46% 30.19 in 10.0 mi SSW 4.6 mph - N/A   Clear
10:55 PM 54.0 °F 34.0 °F 47% 30.19 in 10.0 mi SSW 5.8 mph - N/A   Clear
11:15 PM 53.4 °F 34.0 °F 48% 30.18 in 10.0 mi SSW 6.9 mph - N/A   Clear
11:35 PM 53.2 °F 34.0 °F 48% 30.18 in 10.0 mi SSW 5.8 mph - N/A   Clear
11:55 PM 53.4 °F 34.0 °F 48% 30.19 in 10.0 mi South 4.6 mph - N/A   Clear